sensor_id;sensor_type;location;lat;lon;timestamp;P1;durP1;ratioP1;P2;durP2;ratioP2
62931;SDS011;49037;41.898;25.004;2022-11-12T00:00:35;3.75;;;2.53;;
62931;SDS011;49037;41.898;25.004;2022-11-12T00:03:01;4.18;;;2.50;;
62931;SDS011;49037;41.898;25.004;2022-11-12T00:05:27;2.97;;;2.40;;
62931;SDS011;49037;41.898;25.004;2022-11-12T00:07:53;4.20;;;3.13;;
62931;SDS011;49037;41.898;25.004;2022-11-12T00:10:18;5.50;;;3.35;;
62931;SDS011;49037;41.898;25.004;2022-11-12T00:12:44;4.70;;;3.00;;
62931;SDS011;49037;41.898;25.004;2022-11-12T00:15:10;4.40;;;2.83;;
62931;SDS011;49037;41.898;25.004;2022-11-12T00:17:36;4.28;;;2.80;;
62931;SDS011;49037;41.898;25.004;2022-11-12T00:20:02;2.95;;;2.55;;
62931;SDS011;49037;41.898;25.004;2022-11-12T00:22:29;3.50;;;2.28;;
62931;SDS011;49037;41.898;25.004;2022-11-12T00:24:54;3.08;;;2.03;;
62931;SDS011;49037;41.898;25.004;2022-11-12T00:27:20;2.60;;;2.30;;
62931;SDS011;49037;41.898;25.004;2022-11-12T00:29:46;3.17;;;2.40;;
62931;SDS011;49037;41.898;25.004;2022-11-12T00:32:11;2.92;;;2.38;;
62931;SDS011;49037;41.898;25.004;2022-11-12T00:34:37;3.20;;;2.55;;
62931;SDS011;49037;41.898;25.004;2022-11-12T00:37:03;3.22;;;2.78;;
62931;SDS011;49037;41.898;25.004;2022-11-12T00:39:31;2.97;;;2.50;;
62931;SDS011;49037;41.898;25.004;2022-11-12T00:41:57;2.88;;;2.40;;
62931;SDS011;49037;41.898;25.004;2022-11-12T00:44:23;5.22;;;3.10;;
62931;SDS011;49037;41.898;25.004;2022-11-12T00:46:48;5.18;;;3.13;;
62931;SDS011;49037;41.898;25.004;2022-11-12T00:49:14;4.60;;;3.42;;
62931;SDS011;49037;41.898;25.004;2022-11-12T00:51:42;4.60;;;3.00;;
62931;SDS011;49037;41.898;25.004;2022-11-12T00:54:10;3.47;;;2.70;;
62931;SDS011;49037;41.898;25.004;2022-11-12T00:56:36;4.93;;;3.22;;
62931;SDS011;49037;41.898;25.004;2022-11-12T00:59:01;5.75;;;3.50;;
62931;SDS011;49037;41.898;25.004;2022-11-12T01:01:27;4.43;;;3.13;;
62931;SDS011;49037;41.898;25.004;2022-11-12T01:03:56;5.43;;;3.38;;
62931;SDS011;49037;41.898;25.004;2022-11-12T01:06:43;4.85;;;3.20;;
62931;SDS011;49037;41.898;25.004;2022-11-12T01:09:08;5.30;;;3.13;;
62931;SDS011;49037;41.898;25.004;2022-11-12T01:11:44;6.40;;;3.45;;
62931;SDS011;49037;41.898;25.004;2022-11-12T01:14:12;7.15;;;3.55;;
62931;SDS011;49037;41.898;25.004;2022-11-12T01:16:38;5.10;;;3.28;;
62931;SDS011;49037;41.898;25.004;2022-11-12T01:19:05;6.57;;;4.00;;
62931;SDS011;49037;41.898;25.004;2022-11-12T01:21:37;5.50;;;3.42;;
62931;SDS011;49037;41.898;25.004;2022-11-12T01:24:06;5.57;;;3.40;;
62931;SDS011;49037;41.898;25.004;2022-11-12T01:26:38;6.72;;;3.92;;
62931;SDS011;49037;41.898;25.004;2022-11-12T01:29:06;7.10;;;3.70;;
62931;SDS011;49037;41.898;25.004;2022-11-12T01:31:35;6.63;;;4.03;;
62931;SDS011;49037;41.898;25.004;2022-11-12T01:34:03;6.80;;;3.85;;
62931;SDS011;49037;41.898;25.004;2022-11-12T01:36:32;6.18;;;3.92;;
62931;SDS011;49037;41.898;25.004;2022-11-12T01:39:02;6.97;;;3.97;;
62931;SDS011;49037;41.898;25.004;2022-11-12T01:41:30;5.85;;;3.80;;
62931;SDS011;49037;41.898;25.004;2022-11-12T01:46:45;6.22;;;4.10;;
62931;SDS011;49037;41.898;25.004;2022-11-12T01:49:18;8.05;;;3.70;;
62931;SDS011;49037;41.898;25.004;2022-11-12T01:51:50;6.78;;;3.80;;
62931;SDS011;49037;41.898;25.004;2022-11-12T01:56:46;9.20;;;4.38;;
62931;SDS011;49037;41.898;25.004;2022-11-12T01:59:16;9.40;;;5.15;;
62931;SDS011;49037;41.898;25.004;2022-11-12T02:01:47;9.63;;;4.55;;
62931;SDS011;49037;41.898;25.004;2022-11-12T02:04:13;10.55;;;4.10;;
62931;SDS011;49037;41.898;25.004;2022-11-12T02:06:39;10.38;;;4.78;;
62931;SDS011;49037;41.898;25.004;2022-11-12T02:09:06;9.52;;;4.85;;
62931;SDS011;49037;41.898;25.004;2022-11-12T02:11:32;12.13;;;6.47;;
62931;SDS011;49037;41.898;25.004;2022-11-12T02:13:57;12.65;;;6.22;;
62931;SDS011;49037;41.898;25.004;2022-11-12T02:18:59;10.82;;;5.82;;
62931;SDS011;49037;41.898;25.004;2022-11-12T02:21:26;10.48;;;5.47;;
62931;SDS011;49037;41.898;25.004;2022-11-12T02:26:44;12.63;;;5.28;;
62931;SDS011;49037;41.898;25.004;2022-11-12T02:29:11;12.27;;;5.53;;
62931;SDS011;49037;41.898;25.004;2022-11-12T02:31:37;11.75;;;6.47;;
62931;SDS011;49037;41.898;25.004;2022-11-12T02:34:05;11.15;;;5.50;;
62931;SDS011;49037;41.898;25.004;2022-11-12T02:36:34;11.82;;;5.82;;
62931;SDS011;49037;41.898;25.004;2022-11-12T02:38:59;11.50;;;5.97;;
62931;SDS011;49037;41.898;25.004;2022-11-12T02:41:25;14.52;;;7.15;;
62931;SDS011;49037;41.898;25.004;2022-11-12T02:43:51;12.68;;;6.32;;
62931;SDS011;49037;41.898;25.004;2022-11-12T02:46:16;11.25;;;5.97;;
62931;SDS011;49037;41.898;25.004;2022-11-12T02:48:42;12.23;;;6.40;;
62931;SDS011;49037;41.898;25.004;2022-11-12T02:51:10;11.68;;;6.20;;
62931;SDS011;49037;41.898;25.004;2022-11-12T02:53:36;12.10;;;5.47;;
62931;SDS011;49037;41.898;25.004;2022-11-12T02:56:02;11.93;;;5.32;;
62931;SDS011;49037;41.898;25.004;2022-11-12T02:58:30;12.65;;;6.30;;
62931;SDS011;49037;41.898;25.004;2022-11-12T03:00:56;14.77;;;6.90;;
62931;SDS011;49037;41.898;25.004;2022-11-12T03:03:21;13.23;;;6.28;;
62931;SDS011;49037;41.898;25.004;2022-11-12T03:05:57;11.60;;;5.20;;
62931;SDS011;49037;41.898;25.004;2022-11-12T03:08:24;12.07;;;6.03;;
62931;SDS011;49037;41.898;25.004;2022-11-12T03:10:50;12.73;;;6.47;;
62931;SDS011;49037;41.898;25.004;2022-11-12T03:13:16;10.23;;;5.55;;
62931;SDS011;49037;41.898;25.004;2022-11-12T03:15:42;11.10;;;5.90;;
62931;SDS011;49037;41.898;25.004;2022-11-12T03:18:07;15.55;;;6.60;;
62931;SDS011;49037;41.898;25.004;2022-11-12T03:20:32;16.42;;;8.00;;
62931;SDS011;49037;41.898;25.004;2022-11-12T03:23:17;13.93;;;6.32;;
62931;SDS011;49037;41.898;25.004;2022-11-12T03:25:42;13.43;;;6.43;;
62931;SDS011;49037;41.898;25.004;2022-11-12T03:28:09;13.23;;;5.90;;
62931;SDS011;49037;41.898;25.004;2022-11-12T03:30:38;13.43;;;6.07;;
62931;SDS011;49037;41.898;25.004;2022-11-12T03:33:05;11.18;;;6.10;;
62931;SDS011;49037;41.898;25.004;2022-11-12T03:35:31;12.68;;;5.97;;
62931;SDS011;49037;41.898;25.004;2022-11-12T03:37:57;12.38;;;6.25;;
62931;SDS011;49037;41.898;25.004;2022-11-12T03:40:23;14.35;;;6.25;;
62931;SDS011;49037;41.898;25.004;2022-11-12T03:42:49;12.90;;;6.72;;
62931;SDS011;49037;41.898;25.004;2022-11-12T03:45:16;12.07;;;6.40;;
62931;SDS011;49037;41.898;25.004;2022-11-12T03:47:44;12.38;;;6.50;;
62931;SDS011;49037;41.898;25.004;2022-11-12T03:50:14;11.70;;;6.45;;
62931;SDS011;49037;41.898;25.004;2022-11-12T03:52:44;10.85;;;6.55;;
62931;SDS011;49037;41.898;25.004;2022-11-12T03:55:11;11.73;;;6.30;;
62931;SDS011;49037;41.898;25.004;2022-11-12T03:57:38;13.02;;;6.60;;
62931;SDS011;49037;41.898;25.004;2022-11-12T04:00:04;13.82;;;7.25;;
62931;SDS011;49037;41.898;25.004;2022-11-12T04:02:31;12.98;;;6.97;;
62931;SDS011;49037;41.898;25.004;2022-11-12T04:04:56;11.70;;;6.05;;
62931;SDS011;49037;41.898;25.004;2022-11-12T04:07:40;10.52;;;5.53;;
62931;SDS011;49037;41.898;25.004;2022-11-12T04:10:24;10.82;;;5.88;;
62931;SDS011;49037;41.898;25.004;2022-11-12T04:12:50;10.75;;;5.78;;
62931;SDS011;49037;41.898;25.004;2022-11-12T04:15:34;12.98;;;5.38;;
62931;SDS011;49037;41.898;25.004;2022-11-12T04:17:59;11.70;;;5.80;;
62931;SDS011;49037;41.898;25.004;2022-11-12T04:20:43;11.48;;;5.75;;
62931;SDS011;49037;41.898;25.004;2022-11-12T04:23:41;11.25;;;6.35;;
62931;SDS011;49037;41.898;25.004;2022-11-12T04:26:06;10.43;;;5.93;;
62931;SDS011;49037;41.898;25.004;2022-11-12T04:28:50;10.35;;;5.65;;
62931;SDS011;49037;41.898;25.004;2022-11-12T04:31:34;11.18;;;5.85;;
62931;SDS011;49037;41.898;25.004;2022-11-12T04:33:59;10.73;;;5.05;;
62931;SDS011;49037;41.898;25.004;2022-11-12T04:36:45;15.27;;;6.97;;
62931;SDS011;49037;41.898;25.004;2022-11-12T04:39:10;12.02;;;5.82;;
62931;SDS011;49037;41.898;25.004;2022-11-12T04:41:36;11.63;;;6.25;;
62931;SDS011;49037;41.898;25.004;2022-11-12T04:44:20;12.60;;;6.28;;
62931;SDS011;49037;41.898;25.004;2022-11-12T04:47:04;11.70;;;5.57;;
62931;SDS011;49037;41.898;25.004;2022-11-12T04:49:29;13.02;;;6.53;;
62931;SDS011;49037;41.898;25.004;2022-11-12T04:51:55;11.38;;;5.90;;
62931;SDS011;49037;41.898;25.004;2022-11-12T04:54:29;15.50;;;6.47;;
62931;SDS011;49037;41.898;25.004;2022-11-12T04:56:55;10.93;;;6.35;;
62931;SDS011;49037;41.898;25.004;2022-11-12T04:59:20;16.15;;;7.43;;
62931;SDS011;49037;41.898;25.004;2022-11-12T05:01:46;11.63;;;6.22;;
62931;SDS011;49037;41.898;25.004;2022-11-12T05:04:11;14.13;;;6.85;;
62931;SDS011;49037;41.898;25.004;2022-11-12T05:06:37;12.32;;;6.70;;
62931;SDS011;49037;41.898;25.004;2022-11-12T05:09:18;10.88;;;5.78;;
62931;SDS011;49037;41.898;25.004;2022-11-12T05:11:45;11.98;;;6.47;;
62931;SDS011;49037;41.898;25.004;2022-11-12T05:14:10;11.80;;;6.25;;
62931;SDS011;49037;41.898;25.004;2022-11-12T05:16:36;12.50;;;5.63;;
62931;SDS011;49037;41.898;25.004;2022-11-12T05:19:02;10.02;;;5.65;;
62931;SDS011;49037;41.898;25.004;2022-11-12T05:21:28;11.93;;;6.22;;
62931;SDS011;49037;41.898;25.004;2022-11-12T05:24:12;16.25;;;6.47;;
62931;SDS011;49037;41.898;25.004;2022-11-12T05:26:37;14.23;;;8.65;;
62931;SDS011;49037;41.898;25.004;2022-11-12T05:29:03;16.45;;;10.30;;
62931;SDS011;49037;41.898;25.004;2022-11-12T05:31:29;15.70;;;10.05;;
62931;SDS011;49037;41.898;25.004;2022-11-12T05:33:54;22.58;;;11.93;;
62931;SDS011;49037;41.898;25.004;2022-11-12T05:36:20;14.50;;;8.98;;
62931;SDS011;49037;41.898;25.004;2022-11-12T05:38:45;15.32;;;8.05;;
62931;SDS011;49037;41.898;25.004;2022-11-12T05:41:11;13.68;;;7.50;;
62931;SDS011;49037;41.898;25.004;2022-11-12T05:43:37;13.77;;;7.88;;
62931;SDS011;49037;41.898;25.004;2022-11-12T05:46:02;15.35;;;8.70;;
62931;SDS011;49037;41.898;25.004;2022-11-12T05:48:27;15.48;;;7.68;;
62931;SDS011;49037;41.898;25.004;2022-11-12T05:50:53;31.45;;;15.77;;
62931;SDS011;49037;41.898;25.004;2022-11-12T05:53:19;18.42;;;10.32;;
62931;SDS011;49037;41.898;25.004;2022-11-12T05:55:44;18.80;;;8.52;;
62931;SDS011;49037;41.898;25.004;2022-11-12T05:58:10;16.25;;;8.75;;
62931;SDS011;49037;41.898;25.004;2022-11-12T06:00:35;17.77;;;9.38;;
62931;SDS011;49037;41.898;25.004;2022-11-12T06:03:09;18.05;;;9.25;;
62931;SDS011;49037;41.898;25.004;2022-11-12T06:05:36;15.88;;;8.40;;
62931;SDS011;49037;41.898;25.004;2022-11-12T06:08:03;14.50;;;8.70;;
62931;SDS011;49037;41.898;25.004;2022-11-12T06:10:30;15.07;;;8.57;;
62931;SDS011;49037;41.898;25.004;2022-11-12T06:12:56;18.35;;;11.00;;
62931;SDS011;49037;41.898;25.004;2022-11-12T06:15:22;24.58;;;14.27;;
62931;SDS011;49037;41.898;25.004;2022-11-12T06:17:51;23.80;;;13.32;;
62931;SDS011;49037;41.898;25.004;2022-11-12T06:20:17;22.08;;;12.65;;
62931;SDS011;49037;41.898;25.004;2022-11-12T06:22:42;18.55;;;10.75;;
62931;SDS011;49037;41.898;25.004;2022-11-12T06:25:08;8.40;;;4.60;;
62931;SDS011;49037;41.898;25.004;2022-11-12T06:27:33;12.10;;;5.95;;
62931;SDS011;49037;41.898;25.004;2022-11-12T06:29:59;6.70;;;4.50;;
62931;SDS011;49037;41.898;25.004;2022-11-12T06:32:24;8.63;;;3.92;;
62931;SDS011;49037;41.898;25.004;2022-11-12T06:34:50;9.27;;;5.00;;
62931;SDS011;49037;41.898;25.004;2022-11-12T06:37:17;11.70;;;7.13;;
62931;SDS011;49037;41.898;25.004;2022-11-12T06:39:43;6.15;;;4.30;;
62931;SDS011;49037;41.898;25.004;2022-11-12T06:42:09;8.48;;;5.68;;
62931;SDS011;49037;41.898;25.004;2022-11-12T06:44:34;12.32;;;7.53;;
62931;SDS011;49037;41.898;25.004;2022-11-12T06:47:00;11.35;;;5.68;;
62931;SDS011;49037;41.898;25.004;2022-11-12T06:49:26;7.43;;;4.28;;
62931;SDS011;49037;41.898;25.004;2022-11-12T06:51:51;6.13;;;4.13;;
62931;SDS011;49037;41.898;25.004;2022-11-12T06:54:17;8.45;;;4.28;;
62931;SDS011;49037;41.898;25.004;2022-11-12T06:56:42;7.78;;;4.90;;
62931;SDS011;49037;41.898;25.004;2022-11-12T06:59:08;20.98;;;12.20;;
62931;SDS011;49037;41.898;25.004;2022-11-12T07:01:33;9.75;;;6.75;;
62931;SDS011;49037;41.898;25.004;2022-11-12T07:03:59;8.07;;;4.82;;
62931;SDS011;49037;41.898;25.004;2022-11-12T07:06:24;8.07;;;4.60;;
62931;SDS011;49037;41.898;25.004;2022-11-12T07:08:49;10.20;;;4.35;;
62931;SDS011;49037;41.898;25.004;2022-11-12T07:11:15;5.95;;;4.00;;
62931;SDS011;49037;41.898;25.004;2022-11-12T07:13:42;5.80;;;3.55;;
62931;SDS011;49037;41.898;25.004;2022-11-12T07:16:09;5.25;;;3.50;;
62931;SDS011;49037;41.898;25.004;2022-11-12T07:18:35;5.18;;;4.05;;
62931;SDS011;49037;41.898;25.004;2022-11-12T07:21:05;7.00;;;4.55;;
62931;SDS011;49037;41.898;25.004;2022-11-12T07:23:33;6.70;;;3.20;;
62931;SDS011;49037;41.898;25.004;2022-11-12T07:26:04;6.15;;;3.58;;
62931;SDS011;49037;41.898;25.004;2022-11-12T07:28:39;4.63;;;3.25;;
62931;SDS011;49037;41.898;25.004;2022-11-12T07:31:06;8.55;;;4.88;;
62931;SDS011;49037;41.898;25.004;2022-11-12T07:33:33;54.20;;;27.00;;
62931;SDS011;49037;41.898;25.004;2022-11-12T07:36:00;22.63;;;14.63;;
62931;SDS011;49037;41.898;25.004;2022-11-12T07:38:30;6.80;;;5.05;;
62931;SDS011;49037;41.898;25.004;2022-11-12T07:40:59;9.80;;;7.57;;
62931;SDS011;49037;41.898;25.004;2022-11-12T07:43:26;4.97;;;4.03;;
62931;SDS011;49037;41.898;25.004;2022-11-12T07:45:56;5.55;;;4.00;;
62931;SDS011;49037;41.898;25.004;2022-11-12T07:48:22;4.75;;;4.10;;
62931;SDS011;49037;41.898;25.004;2022-11-12T07:50:48;23.30;;;15.60;;
62931;SDS011;49037;41.898;25.004;2022-11-12T07:53:13;13.88;;;9.45;;
62931;SDS011;49037;41.898;25.004;2022-11-12T07:55:39;5.05;;;4.43;;
62931;SDS011;49037;41.898;25.004;2022-11-12T07:58:04;11.77;;;9.30;;
62931;SDS011;49037;41.898;25.004;2022-11-12T08:00:30;1.05;;;1.05;;
62931;SDS011;49037;41.898;25.004;2022-11-12T08:02:57;1.10;;;1.10;;
62931;SDS011;49037;41.898;25.004;2022-11-12T08:05:25;3.17;;;2.88;;
62931;SDS011;49037;41.898;25.004;2022-11-12T08:07:53;1.17;;;1.17;;
62931;SDS011;49037;41.898;25.004;2022-11-12T08:10:19;15.18;;;11.60;;
62931;SDS011;49037;41.898;25.004;2022-11-12T08:12:44;1.52;;;1.42;;
62931;SDS011;49037;41.898;25.004;2022-11-12T08:15:10;2.28;;;2.08;;
62931;SDS011;49037;41.898;25.004;2022-11-12T08:17:38;1.05;;;1.00;;
62931;SDS011;49037;41.898;25.004;2022-11-12T08:20:04;4.65;;;3.83;;
62931;SDS011;49037;41.898;25.004;2022-11-12T08:22:30;1.65;;;1.55;;
62931;SDS011;49037;41.898;25.004;2022-11-12T08:24:56;13.20;;;11.68;;
62931;SDS011;49037;41.898;25.004;2022-11-12T08:27:22;10.88;;;8.70;;
62931;SDS011;49037;41.898;25.004;2022-11-12T08:29:47;8.35;;;7.30;;
62931;SDS011;49037;41.898;25.004;2022-11-12T08:32:13;19.55;;;17.48;;
62931;SDS011;49037;41.898;25.004;2022-11-12T08:34:39;2.22;;;2.05;;
62931;SDS011;49037;41.898;25.004;2022-11-12T08:37:05;3.13;;;2.20;;
62931;SDS011;49037;41.898;25.004;2022-11-12T08:39:31;4.25;;;3.00;;
62931;SDS011;49037;41.898;25.004;2022-11-12T08:41:57;1.55;;;1.35;;
62931;SDS011;49037;41.898;25.004;2022-11-12T08:44:22;2.92;;;1.67;;
62931;SDS011;49037;41.898;25.004;2022-11-12T08:46:49;1.77;;;1.67;;
62931;SDS011;49037;41.898;25.004;2022-11-12T08:49:14;5.45;;;4.68;;
62931;SDS011;49037;41.898;25.004;2022-11-12T08:51:40;3.22;;;2.88;;
62931;SDS011;49037;41.898;25.004;2022-11-12T08:54:05;2.35;;;2.15;;
62931;SDS011;49037;41.898;25.004;2022-11-12T08:56:31;6.38;;;4.43;;
62931;SDS011;49037;41.898;25.004;2022-11-12T08:58:58;2.92;;;2.72;;
62931;SDS011;49037;41.898;25.004;2022-11-12T09:01:23;2.40;;;2.20;;
62931;SDS011;49037;41.898;25.004;2022-11-12T09:03:49;3.25;;;2.95;;
62931;SDS011;49037;41.898;25.004;2022-11-12T09:06:14;8.15;;;6.10;;
62931;SDS011;49037;41.898;25.004;2022-11-12T09:08:40;3.50;;;3.20;;
62931;SDS011;49037;41.898;25.004;2022-11-12T09:11:05;9.00;;;7.32;;
62931;SDS011;49037;41.898;25.004;2022-11-12T09:13:31;5.82;;;4.15;;
62931;SDS011;49037;41.898;25.004;2022-11-12T09:16:01;1.08;;;0.90;;
62931;SDS011;49037;41.898;25.004;2022-11-12T09:18:27;1.45;;;1.02;;
62931;SDS011;49037;41.898;25.004;2022-11-12T09:20:59;5.30;;;3.65;;
62931;SDS011;49037;41.898;25.004;2022-11-12T09:23:26;5.00;;;2.70;;
62931;SDS011;49037;41.898;25.004;2022-11-12T09:25:53;6.03;;;4.05;;
62931;SDS011;49037;41.898;25.004;2022-11-12T09:28:20;18.00;;;10.93;;
62931;SDS011;49037;41.898;25.004;2022-11-12T09:30:46;29.42;;;18.60;;
62931;SDS011;49037;41.898;25.004;2022-11-12T09:33:13;3.70;;;2.08;;
62931;SDS011;49037;41.898;25.004;2022-11-12T09:35:39;8.18;;;3.85;;
62931;SDS011;49037;41.898;25.004;2022-11-12T09:38:05;16.92;;;6.78;;
62931;SDS011;49037;41.898;25.004;2022-11-12T09:43:27;3.78;;;2.65;;
62931;SDS011;49037;41.898;25.004;2022-11-12T09:45:58;2.95;;;2.42;;
62931;SDS011;49037;41.898;25.004;2022-11-12T09:48:31;49.53;;;24.38;;
62931;SDS011;49037;41.898;25.004;2022-11-12T09:51:14;1.52;;;1.42;;
62931;SDS011;49037;41.898;25.004;2022-11-12T09:53:52;2.65;;;2.45;;
62931;SDS011;49037;41.898;25.004;2022-11-12T09:56:20;3.03;;;2.78;;
62931;SDS011;49037;41.898;25.004;2022-11-12T09:58:46;1.40;;;1.30;;
62931;SDS011;49037;41.898;25.004;2022-11-12T10:01:17;2.67;;;2.47;;
62931;SDS011;49037;41.898;25.004;2022-11-12T10:06:36;2.03;;;1.92;;
62931;SDS011;49037;41.898;25.004;2022-11-12T10:09:22;11.40;;;10.20;;
62931;SDS011;49037;41.898;25.004;2022-11-12T10:17:33;8.45;;;5.43;;
62931;SDS011;49037;41.898;25.004;2022-11-12T10:20:17;9.95;;;8.93;;
62931;SDS011;49037;41.898;25.004;2022-11-12T10:22:57;10.65;;;7.30;;
62931;SDS011;49037;41.898;25.004;2022-11-12T10:25:30;13.05;;;9.30;;
62931;SDS011;49037;41.898;25.004;2022-11-12T10:27:57;2.50;;;2.30;;
62931;SDS011;49037;41.898;25.004;2022-11-12T10:30:30;8.40;;;7.50;;
62931;SDS011;49037;41.898;25.004;2022-11-12T10:32:56;14.27;;;10.25;;
62931;SDS011;49037;41.898;25.004;2022-11-12T10:35:21;0.17;;;0.17;;
62931;SDS011;49037;41.898;25.004;2022-11-12T10:37:56;5.40;;;4.35;;
62931;SDS011;49037;41.898;25.004;2022-11-12T10:43:04;1.52;;;1.42;;
62931;SDS011;49037;41.898;25.004;2022-11-12T10:45:44;4.72;;;3.67;;
62931;SDS011;49037;41.898;25.004;2022-11-12T10:50:48;9.60;;;5.10;;
62931;SDS011;49037;41.898;25.004;2022-11-12T10:53:16;20.08;;;8.63;;
62931;SDS011;49037;41.898;25.004;2022-11-12T10:55:57;22.55;;;11.73;;
62931;SDS011;49037;41.898;25.004;2022-11-12T10:58:24;4.95;;;2.90;;
62931;SDS011;49037;41.898;25.004;2022-11-12T11:00:53;2.38;;;1.38;;
62931;SDS011;49037;41.898;25.004;2022-11-12T11:03:22;7.63;;;3.22;;
62931;SDS011;49037;41.898;25.004;2022-11-12T11:05:55;24.48;;;13.77;;
62931;SDS011;49037;41.898;25.004;2022-11-12T11:13:49;1.55;;;0.73;;
62931;SDS011;49037;41.898;25.004;2022-11-12T11:16:24;0.30;;;0.30;;
62931;SDS011;49037;41.898;25.004;2022-11-12T11:18:58;0.93;;;0.25;;
62931;SDS011;49037;41.898;25.004;2022-11-12T11:29:56;0.40;;;0.40;;
62931;SDS011;49037;41.898;25.004;2022-11-12T11:32:32;0.77;;;0.77;;
62931;SDS011;49037;41.898;25.004;2022-11-12T11:41:16;6.60;;;3.40;;
62931;SDS011;49037;41.898;25.004;2022-11-12T11:57:43;8.68;;;6.38;;
62931;SDS011;49037;41.898;25.004;2022-11-12T12:00:20;2.10;;;1.85;;
62931;SDS011;49037;41.898;25.004;2022-11-12T12:08:45;1.67;;;1.58;;
62931;SDS011;49037;41.898;25.004;2022-11-12T12:11:16;1.83;;;1.73;;
62931;SDS011;49037;41.898;25.004;2022-11-12T12:22:27;2.03;;;1.83;;
62931;SDS011;49037;41.898;25.004;2022-11-12T12:25:14;4.00;;;2.72;;
62931;SDS011;49037;41.898;25.004;2022-11-12T12:27:46;11.95;;;6.93;;
62931;SDS011;49037;41.898;25.004;2022-11-12T12:30:21;1.50;;;1.05;;
62931;SDS011;49037;41.898;25.004;2022-11-12T12:32:52;3.20;;;2.22;;
62931;SDS011;49037;41.898;25.004;2022-11-12T12:35:35;2.50;;;1.30;;
62931;SDS011;49037;41.898;25.004;2022-11-12T12:40:53;3.20;;;2.55;;
62931;SDS011;49037;41.898;25.004;2022-11-12T12:46:03;14.90;;;7.15;;
62931;SDS011;49037;41.898;25.004;2022-11-12T12:48:30;7.93;;;4.28;;
62931;SDS011;49037;41.898;25.004;2022-11-12T12:50:58;10.48;;;4.63;;
62931;SDS011;49037;41.898;25.004;2022-11-12T12:55:54;4.22;;;2.80;;
62931;SDS011;49037;41.898;25.004;2022-11-12T13:00:56;23.17;;;13.13;;
62931;SDS011;49037;41.898;25.004;2022-11-12T13:06:21;20.92;;;12.07;;
62931;SDS011;49037;41.898;25.004;2022-11-12T13:08:48;11.93;;;8.63;;
62931;SDS011;49037;41.898;25.004;2022-11-12T13:32:59;7.85;;;5.50;;
62931;SDS011;49037;41.898;25.004;2022-11-12T13:35:31;9.65;;;6.15;;
62931;SDS011;49037;41.898;25.004;2022-11-12T13:49:09;42.72;;;17.58;;
62931;SDS011;49037;41.898;25.004;2022-11-12T13:59:48;80.63;;;53.33;;
62931;SDS011;49037;41.898;25.004;2022-11-12T14:02:21;52.92;;;32.08;;
62931;SDS011;49037;41.898;25.004;2022-11-12T14:04:49;24.77;;;14.15;;
62931;SDS011;49037;41.898;25.004;2022-11-12T14:15:40;12.20;;;6.63;;
62931;SDS011;49037;41.898;25.004;2022-11-12T14:21:26;18.27;;;8.30;;
62931;SDS011;49037;41.898;25.004;2022-11-12T14:23:52;132.25;;;45.47;;
62931;SDS011;49037;41.898;25.004;2022-11-12T14:29:03;184.15;;;71.03;;
62931;SDS011;49037;41.898;25.004;2022-11-12T14:31:29;14.18;;;10.38;;
62931;SDS011;49037;41.898;25.004;2022-11-12T14:33:55;16.88;;;11.48;;
62931;SDS011;49037;41.898;25.004;2022-11-12T14:36:20;20.33;;;18.13;;
62931;SDS011;49037;41.898;25.004;2022-11-12T14:38:48;8.60;;;5.57;;
62931;SDS011;49037;41.898;25.004;2022-11-12T14:41:21;10.43;;;6.95;;
62931;SDS011;49037;41.898;25.004;2022-11-12T14:43:52;3.88;;;2.10;;
62931;SDS011;49037;41.898;25.004;2022-11-12T14:51:52;2.25;;;1.77;;
62931;SDS011;49037;41.898;25.004;2022-11-12T14:54:27;3.08;;;2.00;;
62931;SDS011;49037;41.898;25.004;2022-11-12T14:56:56;3.72;;;2.35;;
62931;SDS011;49037;41.898;25.004;2022-11-12T14:59:24;16.55;;;8.98;;
62931;SDS011;49037;41.898;25.004;2022-11-12T15:04:37;59.00;;;30.65;;
62931;SDS011;49037;41.898;25.004;2022-11-12T15:07:05;48.97;;;29.00;;
62931;SDS011;49037;41.898;25.004;2022-11-12T15:09:34;33.38;;;20.17;;
62931;SDS011;49037;41.898;25.004;2022-11-12T15:12:02;21.17;;;14.10;;
62931;SDS011;49037;41.898;25.004;2022-11-12T15:14:29;35.42;;;25.45;;
62931;SDS011;49037;41.898;25.004;2022-11-12T15:16:55;26.30;;;18.88;;
62931;SDS011;49037;41.898;25.004;2022-11-12T15:19:22;30.77;;;17.50;;
62931;SDS011;49037;41.898;25.004;2022-11-12T15:21:50;26.95;;;15.40;;
62931;SDS011;49037;41.898;25.004;2022-11-12T15:24:24;26.30;;;12.23;;
62931;SDS011;49037;41.898;25.004;2022-11-12T15:26:54;24.55;;;13.10;;
62931;SDS011;49037;41.898;25.004;2022-11-12T15:31:57;156.32;;;80.85;;
62931;SDS011;49037;41.898;25.004;2022-11-12T15:34:33;81.55;;;43.65;;
62931;SDS011;49037;41.898;25.004;2022-11-12T15:37:19;25.00;;;13.75;;
62931;SDS011;49037;41.898;25.004;2022-11-12T15:39:50;32.05;;;20.15;;
62931;SDS011;49037;41.898;25.004;2022-11-12T15:45:08;31.45;;;17.10;;
62931;SDS011;49037;41.898;25.004;2022-11-12T15:47:37;28.40;;;15.38;;
62931;SDS011;49037;41.898;25.004;2022-11-12T15:52:38;61.88;;;40.63;;
62931;SDS011;49037;41.898;25.004;2022-11-12T15:55:04;35.35;;;20.65;;
62931;SDS011;49037;41.898;25.004;2022-11-12T15:57:30;34.40;;;15.52;;
62931;SDS011;49037;41.898;25.004;2022-11-12T16:00:03;31.40;;;16.75;;
62931;SDS011;49037;41.898;25.004;2022-11-12T16:02:31;31.33;;;15.43;;
62931;SDS011;49037;41.898;25.004;2022-11-12T16:04:57;32.95;;;17.90;;
62931;SDS011;49037;41.898;25.004;2022-11-12T16:07:23;36.78;;;21.27;;
62931;SDS011;49037;41.898;25.004;2022-11-12T16:09:48;35.80;;;19.00;;
62931;SDS011;49037;41.898;25.004;2022-11-12T16:12:14;33.15;;;17.08;;
62931;SDS011;49037;41.898;25.004;2022-11-12T16:14:40;32.90;;;16.23;;
62931;SDS011;49037;41.898;25.004;2022-11-12T16:17:09;40.00;;;19.15;;
62931;SDS011;49037;41.898;25.004;2022-11-12T16:19:37;46.40;;;28.00;;
62931;SDS011;49037;41.898;25.004;2022-11-12T16:22:02;41.70;;;25.38;;
62931;SDS011;49037;41.898;25.004;2022-11-12T16:24:28;43.33;;;26.15;;
62931;SDS011;49037;41.898;25.004;2022-11-12T16:26:54;45.22;;;22.85;;
62931;SDS011;49037;41.898;25.004;2022-11-12T16:29:20;44.17;;;24.30;;
62931;SDS011;49037;41.898;25.004;2022-11-12T16:31:45;41.63;;;22.88;;
62931;SDS011;49037;41.898;25.004;2022-11-12T16:34:11;52.80;;;30.65;;
62931;SDS011;49037;41.898;25.004;2022-11-12T16:36:37;58.78;;;31.48;;
62931;SDS011;49037;41.898;25.004;2022-11-12T16:39:03;84.72;;;45.28;;
62931;SDS011;49037;41.898;25.004;2022-11-12T16:41:29;76.05;;;38.30;;
62931;SDS011;49037;41.898;25.004;2022-11-12T16:43:55;53.92;;;31.10;;
62931;SDS011;49037;41.898;25.004;2022-11-12T16:46:24;54.33;;;29.23;;
62931;SDS011;49037;41.898;25.004;2022-11-12T16:48:52;66.57;;;33.88;;
62931;SDS011;49037;41.898;25.004;2022-11-12T16:51:18;56.17;;;31.52;;
62931;SDS011;49037;41.898;25.004;2022-11-12T16:53:44;70.97;;;34.85;;
62931;SDS011;49037;41.898;25.004;2022-11-12T16:56:11;61.78;;;33.92;;
62931;SDS011;49037;41.898;25.004;2022-11-12T16:58:38;58.58;;;29.52;;
62931;SDS011;49037;41.898;25.004;2022-11-12T17:01:05;64.28;;;33.72;;
62931;SDS011;49037;41.898;25.004;2022-11-12T17:03:31;74.28;;;39.97;;
62931;SDS011;49037;41.898;25.004;2022-11-12T17:05:56;82.25;;;48.75;;
62931;SDS011;49037;41.898;25.004;2022-11-12T17:08:22;60.22;;;36.75;;
62931;SDS011;49037;41.898;25.004;2022-11-12T17:10:48;61.20;;;34.10;;